Stunt Ranch Reserve, Santa Monica Mtns, California Weather observations

Data are for 10 minute period ending at time listed.
 Day   Time   Solar   Ave.   Ave.  Ave.  Vector  Max.   Baro.   Total    
  of    of     Rad.   Air    Rel.  Wind   Wind   Wind  Press.  Precip.   
Year   Day            Temp.  Hum.  Speed  Dir.   Gust                    
2016   (PST)  Kw/m2    F      %     mph   deg.    mph    mb.     in.     
-------------------------------------------------------------------------
 175   19:10   0.01   74.5    57    0.5   138     1.5   966.5    0.00 
 175   19:20   0.00   73.7    57    0.8   268     2.9   966.5    0.00 
 175   19:30   0.00   72.5    60    1.3   240     2.5   966.5    0.00 
 175   19:40   0.00   72.2    60    1.0   138     2.6   966.8    0.00 
 175   19:50   0.00   72.0    60    0.6   270     2.1   966.8    0.00 
 175   20:00   0.00   71.7    60    0.8   143     1.9   966.8    0.00 
 175   20:10   0.00   71.8    60    0.6   151     2.5   966.8    0.00 
 175   20:20   0.00   71.8    60    0.7   195     2.0   966.8    0.00 
 175   20:30   0.00   71.3    61    1.0   206     2.5   967.2    0.00 
 175   20:40   0.00   70.3    63    1.1   277     3.1   967.2    0.00 
 175   20:50   0.00   69.9    64    2.0   212     4.5   967.2    0.00 
 175   21:00   0.00   69.6    64    1.3   252     4.1   967.5    0.00 
 175   21:10   0.00   68.9    65    1.5   240     2.6   967.5    0.00 
 175   21:20   0.00   68.8    66    2.0   141     3.4   967.5    0.00 
 175   21:30   0.00   69.0    65    0.7   183     2.2   967.5    0.00 
 175   21:40   0.00   68.8    66    0.4    26     1.8   967.5    0.00 
 175   21:50   0.00   68.5    66    0.8   255     1.7   967.5    0.00 
 175   22:00   0.00   68.4    67    0.9   262     3.1   967.8    0.00 
 175   22:10   0.00   68.0    67    1.9   250     3.8   967.8    0.00 
 175   22:20   0.00   67.5    68    1.5   159     2.5   967.8    0.00 
 175   22:30   0.00   67.8    67    1.6   128     3.1   967.8    0.00 
 175   22:40   0.00   67.7    67    1.2   105     2.5   967.8    0.00 
 175   22:50   0.00   67.6    68    0.4   248     1.5   967.8    0.00 
 175   23:00   0.00   67.1    68    1.2   282     2.7   968.2    0.00 
 175   23:10   0.00   66.4    69    1.1   253     2.6   967.8    0.00 
 175   23:20   0.00   66.1    70    0.2   291     0.9   967.8    0.00 
 175   23:30   0.00   65.7    70    0.2   283     1.1   967.8    0.00 
 175   23:40   0.00   65.4    70    0.8   277     2.3   967.8    0.00 
 175   23:50   0.00   65.1    71    1.6   271     2.6   968.2    0.00 
 176    0:00   0.00   65.1    70    1.0   291     2.9   968.2    0.00 
 176    0:10   0.00   64.3    72    0.3   245     1.1   968.2    0.00 
 176    0:20   0.00   64.3    72    0.8   132     2.6   968.2    0.00 
 176    0:30   0.00   64.1    72    0.3    25     0.9   968.2    0.00 
 176    0:40   0.00   64.1    72    1.4   165     2.9   967.8    0.00 
 176    0:50   0.00   64.3    72    0.9   192     1.8   967.8    0.00 
 176    1:00   0.00   64.7    71    0.5   234     1.2   967.8    0.00 
 176    1:10   0.00   64.3    71    0.2   316     0.7   967.8    0.00 
 176    1:20   0.00   64.3    72    0.2   177     1.5   967.8    0.00 
 176    1:30   0.00   64.0    72    1.5   149     2.2   967.8    0.00 
 176    1:40   0.00   64.0    72    1.0   151     2.2   967.8    0.00 
 176    1:50   0.00   64.1    71    0.2   228     1.2   967.8    0.00 
 176    2:00   0.00   63.8    72    1.1   275     2.7   967.5    0.00 
 176    2:10   0.00   63.6    71    0.8   143     2.6   967.5    0.00 
 176    2:20   0.00   63.4    72    1.5   274     2.5   967.5    0.00 
 176    2:30   0.00   62.7    73    0.7   290     1.7   967.5    0.00 
 176    2:40   0.00   61.6    75    0.9   164     1.8   967.5    0.00 
 176    2:50   0.00   61.8    74    2.0   131     4.1   967.5    0.00 
 176    3:00   0.00   62.1    74    0.9   162     2.3   967.5    0.00 
 176    3:10   0.00   61.8    75    1.0   246     2.0   967.5    0.00 
 176    3:20   0.00   61.6    76    0.1   240     0.7   967.5    0.00 
 176    3:30   0.00   61.8    76    0.2   259     0.9   967.5    0.00 
 176    3:40   0.00   61.4    78    0.5   338     1.5   967.5    0.00 
 176    3:50   0.00   61.1    78    1.2   275     1.9   967.5    0.00 
 176    4:00   0.00   60.5    78    1.1   106     2.0   967.5    0.00 
 176    4:10   0.00   60.2    79    0.4   312     1.8   967.5    0.00 
 176    4:20   0.00   59.7    81    1.3   281     2.4   967.5    0.00 
 176    4:30   0.00   59.8    80    1.4   146     2.9   967.5    0.00 
 176    4:40   0.00   60.5    78    0.7   129     1.7   967.5    0.00 
 176    4:50   0.01   60.5    77    0.1    92     1.8   967.5    0.00 
 176    5:00   0.01   60.3    78    1.2   278     3.0   967.5    0.00 
 176    5:10   0.01   60.7    78    0.6   129     1.7   967.5    0.00 
 176    5:20   0.01   60.9    78    0.9   258     1.8   967.5    0.00 
 176    5:30   0.03   60.9    78    0.4   278     1.4   967.5    0.00 
 176    5:40   0.03   60.3    79    0.6   299     1.6   967.5    0.00 
 176    5:50   0.10   59.0    81    0.5   158     1.7   967.5    0.00 
 176    6:00   0.15   61.2    77    0.6   126     1.8   967.8    0.00 
 176    6:10   0.18   65.3    67    0.1   325     1.0   967.8    0.00 
 176    6:20   0.21   65.0    67    0.4   326     1.7   967.8    0.00 
 176    6:30   0.24   65.9    65    1.8   298     2.9   967.8    0.00 
 176    6:40   0.28   66.1    65    1.1   287     2.8   967.8    0.00 
 176    6:50   0.31   67.4    64    1.1    15     3.1   967.8    0.00 
 176    7:00   0.35   69.1    62    0.6   306     2.0   967.8    0.00 
 176    7:10   0.38   71.2    58    1.0   326     3.1   967.8    0.00 
 176    7:20   0.42   71.5    59    1.9   302     3.4   967.8    0.00 
 176    7:30   0.46   71.0    60    1.9   296     4.1   967.8    0.00 
 176    7:40   0.49   71.3    60    2.1   296     4.2   967.8    0.00 
 176    7:50   0.52   73.6    57    2.6   294     5.0   967.8    0.00 
 176    8:00   0.55   74.0    57    2.0   303     3.9   967.5    0.00 
 176    8:10   0.59   76.0    54    2.9   299     5.0   967.5    0.00 
 176    8:20   0.62   76.6    54    3.3   287     6.5   967.5    0.00 
 176    8:30   0.65   77.2    53    3.9   283     6.5   967.5    0.00 
 176    8:40   0.68   77.3    53    3.0   291     7.3   967.5    0.00 
 176    8:50   0.71   78.1    52    2.8   290     5.6   967.5    0.00 
 176    9:00   0.74   79.1    50    3.3   287     6.0   967.5    0.00 
 176    9:10   0.76   78.9    50    3.9   287     6.4   967.5    0.00 
 176    9:20   0.79   79.1    49    2.6   293     6.4   967.2    0.00 
 176    9:30   0.81   78.9    48    2.7   289     6.2   967.2    0.00 
 176    9:40   0.84   80.6    46    3.9   288     7.2   967.2    0.00 
 176    9:50   0.86   81.4    45    4.1   288     7.1   967.2    0.00 
 176   10:00   0.88   81.5    45    3.9   285     7.5   967.2    0.00 
 176   10:10   0.90   82.6    44    4.7   284     8.6   967.2    0.00 
 176   10:20   0.91   83.1    43    4.5   283     7.4   967.2    0.00 
 176   10:30   0.93   83.0    43    4.6   282     8.4   967.5    0.00 
 176   10:40   0.94   82.8    43    4.2   288     8.3   967.5    0.00 
 176   10:50   0.95   82.9    43    3.4   288     8.0   967.5    0.00 
 176   11:00   0.96   82.7    43    3.7   300     6.3   967.5    0.00 
 176   11:10   0.96   82.2    44    3.6   301     8.3   967.5    0.00 
 176   11:20   0.97   81.8    46    3.6   317     7.0   967.5    0.00 
 176   11:30   0.97   82.5    45    4.2   292     7.6   967.5    0.00 
 176   11:40   0.97   82.3    45    3.8   289     7.8   967.5    0.00 
 176   11:50   0.97   82.0    45    3.3   286     6.5   967.5    0.00 
 176   12:00   0.98   81.4    46    3.5   300     7.2   967.5    0.00 
 176   12:10   0.97   82.5    45    3.5   301     6.7   967.2    0.00 
 176   12:20   0.97   83.7    44    4.0   320     8.8   966.8    0.00 
 176   12:30   0.97   85.7    42    3.6   307     9.2   966.8    0.00 
 176   12:40   0.96   85.5    42    3.9   300     6.7   966.8    0.00 
 176   12:50   0.92   85.8    41    4.0   294     8.8   966.8    0.00 
 176   13:00   0.95   85.9    41    4.0   288     8.6   966.8    0.00 
 176   13:10   0.94   85.1    42    4.7   282     8.5   966.8    0.00 
 176   13:20   0.93   85.3    42    3.7   284     7.7   966.8    0.00 
 176   13:30   0.91   85.0    42    3.3   295     6.9   966.8    0.00 
 176   13:40   0.90   85.2    42    3.9   291     7.9   966.8    0.00 
 176   13:50   0.88   85.3    42    5.0   285     9.6   966.8    0.00 
 176   14:00   0.86   85.5    42    4.9   283    10.2   966.8    0.00 
 176   14:10   0.84   85.0    42    4.8   291     8.2   966.8    0.00 
 176   14:20   0.82   84.5    43    4.3   290     8.8   966.5    0.00 
 176   14:30   0.79   84.2    43    4.7   288    10.7   966.8    0.00 
 176   14:40   0.77   83.8    44    3.1   299     7.4   966.8    0.00 
 176   14:50   0.74   83.8    44    4.3   281     8.5   966.8    0.00 
 176   15:00   0.71   83.3    45    3.4   284     7.5   966.5    0.00 
 176   15:10   0.69   82.3    46    3.2   285     6.4   966.5    0.00 
 176   15:20   0.66   83.7    44    4.1   286     9.6   966.5    0.00 
 176   15:30   0.63   83.3    44    3.1   295     6.3   966.5    0.00 
 176   15:40   0.60   82.9    45    3.6   288     8.0   966.1    0.00 
 176   15:50   0.57   83.6    44    3.1   282     7.6   966.1    0.00 
 176   16:00   0.54   83.4    44    4.1   300     8.8   966.1    0.00 
 176   16:10   0.51   83.6    44    3.9   285     8.3   965.8    0.00 
 176   16:20   0.47   82.5    46    3.9   313     8.8   965.8    0.00 
 176   16:30   0.44   82.3    46    3.0   324     6.4   965.8    0.00 
 176   16:40   0.41   82.1    46    3.4   323     7.4   965.8    0.00 
 176   16:50   0.38   81.3    47    3.3   324     7.8   965.5    0.00 
 176   17:00   0.35   81.0    47    4.5     6    10.2   965.5    0.00 
 176   17:10   0.31   79.1    49    4.7    15     9.4   965.1    0.00 
 176   17:20   0.28   77.7    52    4.8    40     9.8   965.1    0.00 
 176   17:30   0.25   76.8    53    3.7    34     8.6   965.1    0.00 
 176   17:40   0.21   76.4    53    3.7    25     8.2   965.1    0.00 
 176   17:50   0.18   76.1    54    2.8    26     8.0   964.8    0.00 
 176   18:00   0.11   75.5    54    2.0   343     5.1   964.8    0.00 
 176   18:10   0.05   75.3    55    2.4   337     4.7   964.8    0.00 
 176   18:20   0.05   74.7    55    2.2   344     4.7   964.8    0.00 
 176   18:30   0.03   74.2    56    2.4     2     6.0   964.8    0.00 
 176   18:40   0.03   73.6    57    2.1     4     4.9   964.8    0.00 
 176   18:50   0.02   72.8    58    1.5   325     4.3   964.8    0.00 
 176   19:00   0.01   71.9    61    0.7   297     1.8   964.8    0.00 

Return to Stunt Ranch Reserve graphs page.


Western Regional Climate Center,wrcc@dri.edu